createdAt,value
2017-09-24T00:01:03.050Z,43.52
2017-09-24T00:02:12.065Z,43.52
2017-09-24T00:03:20.759Z,43.91
2017-09-24T00:04:29.773Z,43.62
2017-09-24T00:05:39.111Z,43.72
2017-09-24T00:06:48.131Z,44.01
2017-09-24T00:07:57.465Z,44.01
2017-09-24T00:09:06.481Z,43.72
2017-09-24T00:10:15.815Z,43.91
2017-09-24T00:11:24.513Z,43.72
2017-09-24T00:12:33.526Z,43.91
2017-09-24T00:13:42.547Z,43.81
2017-09-24T00:14:51.242Z,43.72
2017-09-24T00:16:00.581Z,43.81
2017-09-24T00:17:09.597Z,43.72
2017-09-24T00:18:18.292Z,43.72
2017-09-24T00:19:27.625Z,43.91
2017-09-24T00:20:36.318Z,43.91
2017-09-24T00:21:45.337Z,43.72
2017-09-24T00:22:54.351Z,43.91
2017-09-24T00:24:03.051Z,43.72
2017-09-24T00:25:12.379Z,43.81
2017-09-24T00:26:21.395Z,43.81
2017-09-24T00:27:30.090Z,43.91
2017-09-24T00:28:38.788Z,43.62
2017-09-24T00:29:48.126Z,43.72
2017-09-24T00:30:57.460Z,43.62
2017-09-24T00:32:06.797Z,43.62
2017-09-24T00:33:15.812Z,43.81
2017-09-24T00:34:25.465Z,44.1
2017-09-24T00:35:34.800Z,44.1
2017-09-24T00:36:44.456Z,43.72
2017-09-24T00:37:53.151Z,43.62
2017-09-24T00:39:02.173Z,43.72
2017-09-24T00:40:11.189Z,43.52
2017-09-24T00:41:20.212Z,43.72
2017-09-24T00:42:29.228Z,44.1
2017-09-24T00:43:38.243Z,44.2
2017-09-24T00:44:46.936Z,44.1
2017-09-24T00:45:55.632Z,44.2
2017-09-24T00:47:04.969Z,43.81
2017-09-24T00:48:13.982Z,44.1
2017-09-24T00:49:22.677Z,44.1
2017-09-24T00:50:31.691Z,43.91
2017-09-24T00:51:41.025Z,43.72
2017-09-24T00:52:50.679Z,43.81
2017-09-24T00:53:59.695Z,43.81
2017-09-24T00:55:08.710Z,44.01
2017-09-24T00:56:17.725Z,43.52
2017-09-24T00:57:27.062Z,43.91
2017-09-24T00:58:35.758Z,43.52
2017-09-24T00:59:44.774Z,43.91
2017-09-24T01:00:53.480Z,43.91
2017-09-24T01:02:02.175Z,44.01
2017-09-24T01:03:11.510Z,44.01
2017-09-24T01:04:21.164Z,44.1
2017-09-24T01:05:30.175Z,44.1
2017-09-24T01:06:39.222Z,44.1
2017-09-24T01:07:47.916Z,44.1
2017-09-24T01:08:57.259Z,43.91
2017-09-24T01:10:06.266Z,43.91
2017-09-24T01:11:15.604Z,43.91
2017-09-24T01:12:24.300Z,44.29
2017-09-24T01:13:33.638Z,43.79
2017-09-24T01:14:43.294Z,43.91
2017-09-24T01:15:52.948Z,43.89
2017-09-24T01:17:01.640Z,43.62
2017-09-24T01:18:11.294Z,43.98
2017-09-24T01:19:20.308Z,43.91
2017-09-24T01:20:29.004Z,43.7
2017-09-24T01:21:38.342Z,44.56
2017-09-24T01:22:47.039Z,43.7
2017-09-24T01:23:55.735Z,43.98
2017-09-24T01:25:05.394Z,43.98
2017-09-24T01:26:14.413Z,43.7
2017-09-24T01:27:23.426Z,43.98
2017-09-24T01:28:32.443Z,43.98
2017-09-24T01:29:41.777Z,43.89
2017-09-24T01:30:50.792Z,44.27
2017-09-24T01:31:59.804Z,43.89
2017-09-24T01:33:09.461Z,43.7
2017-09-24T01:34:18.794Z,43.89
2017-09-24T01:35:28.130Z,43.98
2017-09-24T01:36:36.824Z,44.27
2017-09-24T01:37:46.160Z,44.37
2017-09-24T01:38:55.173Z,43.98
2017-09-24T01:40:04.186Z,43.89
2017-09-24T01:41:13.202Z,44.18
2017-09-24T01:42:22.860Z,44.27
2017-09-24T01:43:32.200Z,44.08
2017-09-24T01:44:40.894Z,44.08
2017-09-24T01:45:49.590Z,44.08
2017-09-24T01:46:59.244Z,43.89
2017-09-24T01:48:08.898Z,43.89
2017-09-24T01:49:18.236Z,44.08
2017-09-24T01:50:27.249Z,44.08
2017-09-24T01:51:35.968Z,44.08
2017-09-24T01:52:45.309Z,44.18
2017-09-24T01:53:54.644Z,43.89
2017-09-24T01:55:03.337Z,44.18
2017-09-24T01:56:12.031Z,44.27
2017-09-24T01:57:21.049Z,44.46
2017-09-24T01:58:29.744Z,44.18
2017-09-24T01:59:38.758Z,44.37
2017-09-24T02:00:47.774Z,44.46
2017-09-24T02:01:56.788Z,44.18
2017-09-24T02:03:05.485Z,44.37
2017-09-24T02:04:14.500Z,44.18
2017-09-24T02:05:23.518Z,44.27
2017-09-24T02:06:32.849Z,44.27
2017-09-24T02:07:42.500Z,44.18
2017-09-24T02:08:52.156Z,44.66
2017-09-24T02:10:01.167Z,44.18
2017-09-24T02:11:10.190Z,44.95
2017-09-24T02:12:19.526Z,44.27
2017-09-24T02:13:28.543Z,44.46
2017-09-24T02:14:37.241Z,44.37
2017-09-24T02:15:46.573Z,44.27
2017-09-24T02:16:55.588Z,44.76
2017-09-24T02:18:04.297Z,44.66
2017-09-24T02:19:12.991Z,44.18
2017-09-24T02:20:22.644Z,44.56
2017-09-24T02:21:32.304Z,44.27
2017-09-24T02:22:41.642Z,44.56
2017-09-24T02:23:50.653Z,44.56
2017-09-24T02:24:59.669Z,44.66
2017-09-24T02:26:08.683Z,44.66
2017-09-24T02:27:17.698Z,44.66
2017-09-24T02:28:27.035Z,44.66
2017-09-24T02:29:36.368Z,44.56
2017-09-24T02:30:45.064Z,44.56
2017-09-24T02:31:54.083Z,44.56
2017-09-24T02:33:03.476Z,44.46
2017-09-24T02:34:12.493Z,44.46
2017-09-24T02:35:21.513Z,44.76
2017-09-24T02:36:30.528Z,44.66
2017-09-24T02:37:39.220Z,44.76
2017-09-24T02:38:48.566Z,44.56
2017-09-24T02:39:58.229Z,44.76
2017-09-24T02:41:07.885Z,44.76
2017-09-24T02:42:16.580Z,44.56
2017-09-24T02:43:25.596Z,44.85
2017-09-24T02:44:34.288Z,44.95
2017-09-24T02:45:43.997Z,44.56
2017-09-24T02:46:52.691Z,44.95
2017-09-24T02:48:02.030Z,44.85
2017-09-24T02:49:11.049Z,44.56
2017-09-24T02:50:20.063Z,44.56
2017-09-24T02:51:29.078Z,44.85
2017-09-24T02:52:38.095Z,44.85
2017-09-24T02:53:47.437Z,44.37
2017-09-24T02:54:56.457Z,44.66
2017-09-24T02:56:05.476Z,44.66
2017-09-24T02:57:15.145Z,44.46
2017-09-24T02:58:24.160Z,44.66
2017-09-24T02:59:33.493Z,44.73
2017-09-24T03:00:42.824Z,44.56
2017-09-24T03:01:51.840Z,44.76
2017-09-24T03:03:00.534Z,44.54
2017-09-24T03:04:09.872Z,44.56
2017-09-24T03:05:18.886Z,44.54
2017-09-24T03:06:28.252Z,45.21
2017-09-24T03:07:36.950Z,44.54
2017-09-24T03:08:45.962Z,44.85
2017-09-24T03:09:55.295Z,44.64
2017-09-24T03:11:04.310Z,44.83
2017-09-24T03:12:13.331Z,44.73
2017-09-24T03:13:22.986Z,45.04
2017-09-24T03:14:31.693Z,44.76
2017-09-24T03:15:40.707Z,44.95
2017-09-24T03:16:49.403Z,45.04
2017-09-24T03:17:58.096Z,45.12
2017-09-24T03:19:07.110Z,45.12
2017-09-24T03:20:16.124Z,44.85
2017-09-24T03:21:25.140Z,45.04
2017-09-24T03:22:34.154Z,44.93
2017-09-24T03:23:42.847Z,45.03
2017-09-24T03:24:51.540Z,45.03
2017-09-24T03:26:00.556Z,44.76
2017-09-24T03:27:09.249Z,45.12
2017-09-24T03:28:18.260Z,45.14
2017-09-24T03:29:27.593Z,45.03
2017-09-24T03:30:36.286Z,44.83
2017-09-24T03:31:45.626Z,44.83
2017-09-24T03:32:54.639Z,44.83
2017-09-24T03:34:03.974Z,44.95
2017-09-24T03:35:12.987Z,45.03
2017-09-24T03:36:22.001Z,44.76
2017-09-24T03:37:31.015Z,44.85
2017-09-24T03:38:40.669Z,44.83
2017-09-24T03:39:50.320Z,45.03
2017-09-24T03:40:59.657Z,44.85
2017-09-24T03:42:09.316Z,45.04
2017-09-24T03:43:18.012Z,45.14
2017-09-24T03:44:27.346Z,45.03
2017-09-24T03:45:36.358Z,44.56
2017-09-24T03:46:45.691Z,44.76
2017-09-24T03:47:55.665Z,44.76
2017-09-24T03:49:05.003Z,44.56
2017-09-24T03:50:14.335Z,44.56
2017-09-24T03:51:24.308Z,44.46
2017-09-24T03:52:33.320Z,44.46
2017-09-24T03:53:42.341Z,44.46
2017-09-24T03:54:51.354Z,44.85
2017-09-24T03:56:00.367Z,44.37
2017-09-24T03:57:10.024Z,44.46
2017-09-24T03:58:19.040Z,44.08
2017-09-24T03:59:28.063Z,43.89
2017-09-24T04:00:37.397Z,44.27
2017-09-24T04:01:46.091Z,43.98
2017-09-24T04:02:55.110Z,44.27
2017-09-24T04:04:04.124Z,44.27
2017-09-24T04:05:13.459Z,44.37
2017-09-24T04:06:22.798Z,44.46
2017-09-24T04:07:31.493Z,44.37
2017-09-24T04:08:40.505Z,44.46
2017-09-24T04:09:49.202Z,44.56
2017-09-24T04:10:58.215Z,44.56
2017-09-24T04:12:08.190Z,44.27
2017-09-24T04:13:16.882Z,44.37
2017-09-24T04:14:26.548Z,44.27
2017-09-24T04:15:35.557Z,44.27
2017-09-24T04:16:44.898Z,44.56
2017-09-24T04:17:53.915Z,44.18
2017-09-24T04:19:02.928Z,43.98
2017-09-24T04:20:11.626Z,43.89
2017-09-24T04:21:20.646Z,43.98
2017-09-24T04:22:29.340Z,44.08
2017-09-24T04:23:38.359Z,44.08
2017-09-24T04:24:47.691Z,44.18
2017-09-24T04:25:56.386Z,44.08
2017-09-24T04:27:05.084Z,43.89
2017-09-24T04:28:14.101Z,43.98
2017-09-24T04:29:22.795Z,44.08
2017-09-24T04:30:32.451Z,43.89
2017-09-24T04:31:41.786Z,44.37
2017-09-24T04:32:50.483Z,44.08
2017-09-24T04:33:59.178Z,44.37
2017-09-24T04:35:08.196Z,43.98
2017-09-24T04:36:17.212Z,43.89
2017-09-24T04:37:26.551Z,43.98
2017-09-24T04:38:35.246Z,44.18
2017-09-24T04:39:43.939Z,43.89
2017-09-24T04:40:52.632Z,44.27
2017-09-24T04:42:01.327Z,43.79
2017-09-24T04:43:10.022Z,43.7
2017-09-24T04:44:19.674Z,43.89
2017-09-24T04:45:29.648Z,43.79
2017-09-24T04:46:38.983Z,43.7
2017-09-24T04:47:47.997Z,43.79
2017-09-24T04:48:57.338Z,43.79
2017-09-24T04:50:06.992Z,43.98
2017-09-24T04:51:16.008Z,43.89
2017-09-24T04:52:24.703Z,43.79
2017-09-24T04:53:33.399Z,43.79
2017-09-24T04:54:42.414Z,43.79
2017-09-24T04:55:51.431Z,43.41
2017-09-24T04:57:00.124Z,44.08
2017-09-24T04:58:08.819Z,44.08
2017-09-24T04:59:17.833Z,44.08
2017-09-24T05:00:27.169Z,44.18
2017-09-24T05:01:36.183Z,44.1
2017-09-24T05:02:44.877Z,44.2
2017-09-24T05:03:53.892Z,44.2
2017-09-24T05:05:02.585Z,43.72
2017-09-24T05:06:11.599Z,44.1
2017-09-24T05:07:20.612Z,43.62
2017-09-24T05:08:29.942Z,44.1
2017-09-24T05:09:38.641Z,44.01
2017-09-24T05:10:47.976Z,43.62
2017-09-24T05:11:57.628Z,43.91
2017-09-24T05:13:06.642Z,43.62
2017-09-24T05:14:15.977Z,43.62
2017-09-24T05:15:25.310Z,43.81
2017-09-24T05:16:34.009Z,43.81
2017-09-24T05:17:43.343Z,43.91
2017-09-24T05:18:52.676Z,43.81
2017-09-24T05:20:02.011Z,43.81
2017-09-24T05:21:11.342Z,43.91
2017-09-24T05:22:20.674Z,44.01
2017-09-24T05:23:30.005Z,43.81
2017-09-24T05:24:39.025Z,43.81
2017-09-24T05:25:48.686Z,43.81
2017-09-24T05:26:58.023Z,44.01
2017-09-24T05:28:07.680Z,44.01
2017-09-24T05:29:17.336Z,43.91
2017-09-24T05:30:26.038Z,43.72
2017-09-24T05:31:35.693Z,43.62
2017-09-24T05:32:45.029Z,44.01
2017-09-24T05:33:54.046Z,43.43
2017-09-24T05:35:02.742Z,43.52
2017-09-24T05:36:11.756Z,43.91
2017-09-24T05:37:20.770Z,43.43
2017-09-24T05:38:30.104Z,43.62
2017-09-24T05:39:38.798Z,43.43
2017-09-24T05:40:47.814Z,43.33
2017-09-24T05:41:56.511Z,43.33
2017-09-24T05:43:05.852Z,43.33
2017-09-24T05:44:14.545Z,43.33
2017-09-24T05:45:23.560Z,43.14
2017-09-24T05:46:32.261Z,43.33
2017-09-24T05:47:41.595Z,43.14
2017-09-24T05:48:50.616Z,43.52
2017-09-24T05:49:59.949Z,43.72
2017-09-24T05:51:08.642Z,43.33
2017-09-24T05:52:17.337Z,43.52
2017-09-24T05:53:26.353Z,43.52
2017-09-24T05:54:35.369Z,43.43
2017-09-24T05:55:44.706Z,43.33
2017-09-24T05:56:53.404Z,43.33
2017-09-24T05:58:02.098Z,43.43
2017-09-24T05:59:12.075Z,43.43
2017-09-24T06:00:21.412Z,43.52
2017-09-24T06:01:31.067Z,43.24
2017-09-24T06:02:40.402Z,43.52
2017-09-24T06:03:49.419Z,43.43
2017-09-24T06:04:59.082Z,43.52
2017-09-24T06:06:08.099Z,43.52
2017-09-24T06:07:16.794Z,43.52
2017-09-24T06:08:25.490Z,43.33
2017-09-24T06:09:34.827Z,43.52
2017-09-24T06:10:43.518Z,43.52
2017-09-24T06:11:52.215Z,43.43
2017-09-24T06:13:01.549Z,43.52
2017-09-24T06:14:10.572Z,43.52
2017-09-24T06:15:19.267Z,43.52
2017-09-24T06:16:29.242Z,43.33
2017-09-24T06:17:37.943Z,43.52
2017-09-24T06:18:47.277Z,43.43
2017-09-24T06:19:56.295Z,43.33
2017-09-24T06:21:05.310Z,43.33
2017-09-24T06:22:14.327Z,43.62
2017-09-24T06:23:23.696Z,43.52
2017-09-24T06:24:32.735Z,43.52
2017-09-24T06:25:42.041Z,43.52
2017-09-24T06:26:50.746Z,43.43
2017-09-24T06:27:59.759Z,43.62
2017-09-24T06:29:08.455Z,43.24
2017-09-24T06:30:17.788Z,43.43
2017-09-24T06:31:27.439Z,43.43
2017-09-24T06:32:36.455Z,43.43
2017-09-24T06:33:45.153Z,43.43
2017-09-24T06:34:53.852Z,43.24
2017-09-24T06:36:02.550Z,43.33
2017-09-24T06:37:11.889Z,43.24
2017-09-24T06:38:20.902Z,43.43
2017-09-24T06:39:29.596Z,43.33
2017-09-24T06:40:38.612Z,43.52
2017-09-24T06:41:47.627Z,43.43
2017-09-24T06:42:56.645Z,43.24
2017-09-24T06:44:06.622Z,43.43
2017-09-24T06:45:15.635Z,43.43
2017-09-24T06:46:24.969Z,43.52
2017-09-24T06:47:34.312Z,43.52
2017-09-24T06:48:43.008Z,43.62
2017-09-24T06:49:52.034Z,43.43
2017-09-24T06:51:01.373Z,43.24
2017-09-24T06:52:10.713Z,43.43
2017-09-24T06:53:19.761Z,43.33
2017-09-24T06:54:28.773Z,43.43
2017-09-24T06:55:37.795Z,43.33
2017-09-24T06:56:46.492Z,43.43
2017-09-24T06:57:55.830Z,43.33
2017-09-24T06:59:04.847Z,43.24
2017-09-24T07:00:14.180Z,43.33
2017-09-24T07:01:23.839Z,43.52
2017-09-24T07:02:32.854Z,43.33
2017-09-24T07:03:41.867Z,43.43
2017-09-24T07:04:50.562Z,43.33
2017-09-24T07:05:59.259Z,43.24
2017-09-24T07:07:08.911Z,43.43
2017-09-24T07:08:18.247Z,43.24
2017-09-24T07:09:27.578Z,43.24
2017-09-24T07:10:36.275Z,43.24
2017-09-24T07:11:45.290Z,43.04
2017-09-24T07:12:54.621Z,43.43
2017-09-24T07:14:03.639Z,43.04
2017-09-24T07:15:12.336Z,43.33
2017-09-24T07:16:21.351Z,43.04
2017-09-24T07:17:30.688Z,43.14
2017-09-24T07:18:39.385Z,43.04
2017-09-24T07:19:48.402Z,43.33
2017-09-24T07:20:57.419Z,43.16
2017-09-24T07:22:06.118Z,43.14
2017-09-24T07:23:14.816Z,43.52
2017-09-24T07:24:23.828Z,43.52
2017-09-24T07:25:33.481Z,43.43
2017-09-24T07:26:42.851Z,43.43
2017-09-24T07:27:52.471Z,43.52
2017-09-24T07:29:01.163Z,43.43
2017-09-24T07:30:09.858Z,43.26
2017-09-24T07:31:18.871Z,43.43
2017-09-24T07:32:27.884Z,43.43
2017-09-24T07:33:37.215Z,43.33
2017-09-24T07:34:46.550Z,43.35
2017-09-24T07:35:55.565Z,43.24
2017-09-24T07:37:04.902Z,43.35
2017-09-24T07:38:13.922Z,43.24
2017-09-24T07:39:22.616Z,43.14
2017-09-24T07:40:32.270Z,42.94
2017-09-24T07:41:41.287Z,43.04
2017-09-24T07:42:50.303Z,43.26
2017-09-24T07:43:59.324Z,43.16
2017-09-24T07:45:08.661Z,43.06
2017-09-24T07:46:17.358Z,43.06
2017-09-24T07:47:26.695Z,43.26
2017-09-24T07:48:36.350Z,43.06
2017-09-24T07:49:45.683Z,42.97
2017-09-24T07:50:55.346Z,42.87
2017-09-24T07:52:04.365Z,43.06
2017-09-24T07:53:13.384Z,43.06
2017-09-24T07:54:22.394Z,43.16
2017-09-24T07:55:31.410Z,42.97
2017-09-24T07:56:40.104Z,42.58
2017-09-24T07:57:49.443Z,42.87
2017-09-24T07:58:58.457Z,42.77
2017-09-24T08:00:07.151Z,42.58
2017-09-24T08:01:15.849Z,42.48
2017-09-24T08:02:25.187Z,43.06
2017-09-24T08:03:34.203Z,42.77
2017-09-24T08:04:42.895Z,42.87
2017-09-24T08:05:51.911Z,42.58
2017-09-24T08:07:00.938Z,42.68
2017-09-24T08:08:10.273Z,42.77
2017-09-24T08:09:19.608Z,42.41
2017-09-24T08:10:28.630Z,42.99
2017-09-24T08:11:37.644Z,42.6
2017-09-24T08:12:46.355Z,42.41
2017-09-24T08:13:55.370Z,42.41
2017-09-24T08:15:04.063Z,42.6
2017-09-24T08:16:12.761Z,42.41
2017-09-24T08:17:21.775Z,42.12
2017-09-24T08:18:30.788Z,42.02
2017-09-24T08:19:40.123Z,41.93
2017-09-24T08:20:48.816Z,41.73
2017-09-24T08:21:57.512Z,42.02
2017-09-24T08:23:06.846Z,41.93
2017-09-24T08:24:16.182Z,41.54
2017-09-24T08:25:24.876Z,41.73
2017-09-24T08:26:33.891Z,41.66
2017-09-24T08:27:42.904Z,41.17
2017-09-24T08:28:52.243Z,41.75
2017-09-24T08:30:01.264Z,41.36
2017-09-24T08:31:09.961Z,41.35
2017-09-24T08:32:18.980Z,41.56
2017-09-24T08:33:27.674Z,41.46
2017-09-24T08:34:37.016Z,40.98
2017-09-24T08:35:46.349Z,40.98
2017-09-24T08:36:56.013Z,41.27
2017-09-24T08:38:05.022Z,40.98
2017-09-24T08:39:14.037Z,40.5
2017-09-24T08:40:23.368Z,40.52
2017-09-24T08:41:32.383Z,40.4
2017-09-24T08:42:41.402Z,40.9
2017-09-24T08:43:50.426Z,40.61
2017-09-24T08:44:59.125Z,40.52
2017-09-24T08:46:07.825Z,40.52
2017-09-24T08:47:17.198Z,40.71
2017-09-24T08:48:26.218Z,40.71
2017-09-24T08:49:35.265Z,40.23
2017-09-24T08:50:44.605Z,39.94
2017-09-24T08:51:53.309Z,39.94
2017-09-24T08:53:02.334Z,39.84
2017-09-24T08:54:11.356Z,40.32
2017-09-24T08:55:20.376Z,40.13
2017-09-24T08:56:29.075Z,40.05
2017-09-24T08:57:37.773Z,39.57
2017-09-24T08:58:46.793Z,39.86
2017-09-24T08:59:55.491Z,39.57
2017-09-24T09:01:04.189Z,39.37
2017-09-24T09:02:12.890Z,39.37
2017-09-24T09:03:21.590Z,39.28
2017-09-24T09:04:30.933Z,39.39
2017-09-24T09:05:39.632Z,39.29
2017-09-24T09:06:49.605Z,39.01
2017-09-24T09:07:59.269Z,38.91
2017-09-24T09:09:08.284Z,38.91
2017-09-24T09:10:17.301Z,38.53
2017-09-24T09:11:26.640Z,38.15
2017-09-24T09:12:35.981Z,38.54
2017-09-24T09:13:44.999Z,38.35
2017-09-24T09:14:54.028Z,38.25
2017-09-24T09:16:03.373Z,38.06
2017-09-24T09:17:12.392Z,37.69
2017-09-24T09:18:21.417Z,37.77
2017-09-24T09:19:30.756Z,37.59
2017-09-24T09:20:39.458Z,37.4
2017-09-24T09:21:48.474Z,37.69
2017-09-24T09:22:57.175Z,37.01
2017-09-24T09:24:06.189Z,36.72
2017-09-24T09:25:15.206Z,36.44
2017-09-24T09:26:23.903Z,36.18
2017-09-24T09:27:32.927Z,35.69
2017-09-24T09:28:41.622Z,35.13
2017-09-24T09:29:50.322Z,34.46
2017-09-24T09:30:59.660Z,33.98
2017-09-24T09:32:09.001Z,33.51
2017-09-24T09:33:17.700Z,33.04
2017-09-24T09:34:26.716Z,32.75
2017-09-24T09:35:35.733Z,32.18
2017-09-24T09:36:44.750Z,31.88
2017-09-24T09:37:54.086Z,31.71
2017-09-24T09:39:03.426Z,31.13
2017-09-24T09:40:12.440Z,30.74
2017-09-24T09:41:21.143Z,30.85
2017-09-24T09:42:30.159Z,30.75
2017-09-24T09:43:39.177Z,30.46
2017-09-24T09:44:48.196Z,30.55
2017-09-24T09:45:57.215Z,30.65
2017-09-24T09:47:05.915Z,31.24
2017-09-24T09:48:14.613Z,30.85
2017-09-24T09:49:23.950Z,30.75
2017-09-24T09:50:32.967Z,31.13
2017-09-24T09:51:41.663Z,31.13
2017-09-24T09:52:50.359Z,31.22
2017-09-24T09:53:59.057Z,30.94
2017-09-24T09:55:08.076Z,30.75
2017-09-24T09:56:17.097Z,30.75
2017-09-24T09:57:26.440Z,30.85
2017-09-24T09:58:36.099Z,30.83
2017-09-24T09:59:45.118Z,31.13
2017-09-24T10:00:53.817Z,31.32
2017-09-24T10:02:03.790Z,31.81
2017-09-24T10:03:13.130Z,32.08
2017-09-24T10:04:22.467Z,32.28
2017-09-24T10:05:31.167Z,32.37
2017-09-24T10:06:40.186Z,32.84
2017-09-24T10:07:48.880Z,32.75
2017-09-24T10:08:57.578Z,33.12
2017-09-24T10:10:06.278Z,32.94
2017-09-24T10:11:15.294Z,32.65
2017-09-24T10:12:24.637Z,32.45
2017-09-24T10:13:33.334Z,32.94
2017-09-24T10:14:42.355Z,33.14
2017-09-24T10:15:51.693Z,33.12
2017-09-24T10:17:00.712Z,33.51
2017-09-24T10:18:10.380Z,33.51
2017-09-24T10:19:19.384Z,33.51
2017-09-24T10:20:28.089Z,33.51
2017-09-24T10:21:37.750Z,33.51
2017-09-24T10:22:47.087Z,33.51
2017-09-24T10:23:56.427Z,33.7
2017-09-24T10:25:05.773Z,33.51
2017-09-24T10:26:14.475Z,33.61
2017-09-24T10:27:24.134Z,33.41
2017-09-24T10:28:33.470Z,33.14
2017-09-24T10:29:42.500Z,33.14
2017-09-24T10:30:51.878Z,33.04
2017-09-24T10:32:01.212Z,33.14
2017-09-24T10:33:09.912Z,33.04
2017-09-24T10:34:19.572Z,32.94
2017-09-24T10:35:28.270Z,32.94
2017-09-24T10:36:37.614Z,32.84
2017-09-24T10:37:46.953Z,32.84
2017-09-24T10:38:56.290Z,32.94
2017-09-24T10:40:05.308Z,32.57
2017-09-24T10:41:14.009Z,31.98
2017-09-24T10:42:22.709Z,32.18
2017-09-24T10:43:31.726Z,31.98
2017-09-24T10:44:40.425Z,31.98
2017-09-24T10:45:49.124Z,32.55
2017-09-24T10:46:58.142Z,32.65
2017-09-24T10:48:07.483Z,32.65
2017-09-24T10:49:17.139Z,32.94
2017-09-24T10:50:26.157Z,32.84
2017-09-24T10:51:35.174Z,33.14
2017-09-24T10:52:44.192Z,33.14
2017-09-24T10:53:53.206Z,33.23
2017-09-24T10:55:02.542Z,33.23
2017-09-24T10:56:11.557Z,33.04
2017-09-24T10:57:21.220Z,33.04
2017-09-24T10:58:29.918Z,33.04
2017-09-24T10:59:38.936Z,32.84
2017-09-24T11:00:47.635Z,33.04
2017-09-24T11:01:56.972Z,32.94
2017-09-24T11:03:05.669Z,33.23
2017-09-24T11:04:15.007Z,33.14
2017-09-24T11:05:24.026Z,33.41
2017-09-24T11:06:33.046Z,33.51
2017-09-24T11:07:41.745Z,33.61
2017-09-24T11:08:51.084Z,33.61
2017-09-24T11:09:59.780Z,33.61
2017-09-24T11:11:09.120Z,33.51
2017-09-24T11:12:18.136Z,33.04
2017-09-24T11:13:27.476Z,32.65
2017-09-24T11:14:36.175Z,31.98
2017-09-24T11:15:45.194Z,31.03
2017-09-24T11:16:54.212Z,30.36
2017-09-24T11:18:03.230Z,29.61
2017-09-24T11:19:11.928Z,28.36
2017-09-24T11:20:20.949Z,28.08
2017-09-24T11:21:29.651Z,27.61
2017-09-24T11:22:38.671Z,27.42
2017-09-24T11:23:48.010Z,26.93
2017-09-24T11:24:57.029Z,27.23
2017-09-24T11:26:06.048Z,25.68
2017-09-24T11:27:14.748Z,25.79
2017-09-24T11:28:23.770Z,25.02
2017-09-24T11:29:32.477Z,24.44
2017-09-24T11:30:41.820Z,23.77
2017-09-24T11:31:50.845Z,23.49
2017-09-24T11:32:59.866Z,23.21
2017-09-24T11:34:08.569Z,22.24
2017-09-24T11:35:17.591Z,21.86
2017-09-24T11:36:26.610Z,21.38
2017-09-24T11:37:35.632Z,21.49
2017-09-24T11:38:44.333Z,20.61
2017-09-24T11:39:53.357Z,20.42
2017-09-24T11:41:02.062Z,20.62
2017-09-24T11:42:11.403Z,19.84
2017-09-24T11:43:20.428Z,20.14
2017-09-24T11:44:29.451Z,19.65
2017-09-24T11:45:38.800Z,19.46
2017-09-24T11:46:47.492Z,19.17
2017-09-24T11:47:56.196Z,19.48
2017-09-24T11:49:05.219Z,19.18
2017-09-24T11:50:14.242Z,18.98
2017-09-24T11:51:23.265Z,19.27
2017-09-24T11:52:32.294Z,19.38
2017-09-24T11:53:41.643Z,19.76
2017-09-24T11:54:50.668Z,20.64
2017-09-24T11:55:59.687Z,20.72
2017-09-24T11:57:09.348Z,21.29
2017-09-24T11:58:18.368Z,22.16
2017-09-24T11:59:27.391Z,22.64
2017-09-24T12:00:36.410Z,23.31
2017-09-24T12:01:45.437Z,23.49
2017-09-24T12:02:54.784Z,24.36
2017-09-24T12:04:03.803Z,24.64
2017-09-24T12:05:13.142Z,25.23
2017-09-24T12:06:21.841Z,25.81
2017-09-24T12:07:30.863Z,26.09
2017-09-24T12:08:39.562Z,26.46
2017-09-24T12:09:48.582Z,27.03
2017-09-24T12:10:57.604Z,27.23
2017-09-24T12:12:06.302Z,27.51
2017-09-24T12:13:15.001Z,28
2017-09-24T12:14:24.345Z,28.38
2017-09-24T12:15:33.681Z,28.94
2017-09-24T12:16:42.384Z,28.94
2017-09-24T12:17:51.723Z,29.61
2017-09-24T12:19:00.424Z,30
2017-09-24T12:20:10.084Z,29.91
2017-09-24T12:21:19.134Z,30.39
2017-09-24T12:22:28.162Z,30.77
2017-09-24T12:23:37.510Z,30.67
2017-09-24T12:24:46.538Z,30.96
2017-09-24T12:25:55.234Z,31.43
2017-09-24T12:27:03.935Z,31.14
2017-09-24T12:28:13.597Z,31.34
2017-09-24T12:29:22.935Z,31.34
2017-09-24T12:30:31.984Z,31.63
2017-09-24T12:31:40.682Z,32.1
2017-09-24T12:32:49.377Z,31.9
2017-09-24T12:33:58.726Z,32.1
2017-09-24T12:35:08.065Z,32
2017-09-24T12:36:17.081Z,31.32
2017-09-24T12:37:26.419Z,30.44
2017-09-24T12:38:35.764Z,30.52
2017-09-24T12:39:44.786Z,30.91
2017-09-24T12:40:53.804Z,30.62
2017-09-24T12:42:03.144Z,31
2017-09-24T12:43:12.159Z,31.38
2017-09-24T12:44:20.858Z,31.48
2017-09-24T12:45:29.878Z,31.38
2017-09-24T12:46:38.576Z,31.87
2017-09-24T12:47:47.593Z,31.87
2017-09-24T12:48:56.610Z,31.85
2017-09-24T12:50:05.632Z,31.97
2017-09-24T12:51:14.328Z,32.24
2017-09-24T12:52:23.346Z,32.44
2017-09-24T12:53:32.364Z,32.64
2017-09-24T12:54:41.705Z,32.54
2017-09-24T12:55:51.045Z,33.02
2017-09-24T12:56:59.741Z,32.91
2017-09-24T12:58:09.075Z,32.91
2017-09-24T12:59:17.772Z,33.01
2017-09-24T13:00:27.111Z,33.11
2017-09-24T13:01:35.809Z,33.2
2017-09-24T13:02:44.507Z,33.49
2017-09-24T13:03:53.527Z,33.39
2017-09-24T13:05:02.229Z,33.69
2017-09-24T13:06:11.245Z,33.78
2017-09-24T13:07:20.262Z,33.69
2017-09-24T13:08:28.960Z,33.78
2017-09-24T13:09:37.977Z,33.78
2017-09-24T13:10:46.679Z,33.76
2017-09-24T13:11:56.012Z,34.06
2017-09-24T13:13:05.670Z,34.16
2017-09-24T13:14:14.367Z,34.25
2017-09-24T13:15:23.710Z,34.25
2017-09-24T13:16:32.728Z,34.43
2017-09-24T13:17:41.744Z,34.62
2017-09-24T13:18:50.760Z,34.62
2017-09-24T13:19:59.456Z,34.91
2017-09-24T13:21:08.474Z,35.3
2017-09-24T13:22:17.492Z,35.09
2017-09-24T13:23:26.513Z,35.01
2017-09-24T13:24:35.850Z,34.99
2017-09-24T13:25:44.868Z,34.99
2017-09-24T13:26:53.885Z,35.57
2017-09-24T13:28:02.899Z,35.77
2017-09-24T13:29:11.916Z,35.67
2017-09-24T13:30:20.617Z,35.94
2017-09-24T13:31:29.634Z,35.66
2017-09-24T13:32:38.651Z,36.25
2017-09-24T13:33:47.667Z,35.85
2017-09-24T13:34:56.998Z,36.04
2017-09-24T13:36:06.016Z,36.33
2017-09-24T13:37:14.712Z,36.43
2017-09-24T13:38:24.046Z,36.24
2017-09-24T13:39:33.388Z,36.04
2017-09-24T13:40:42.083Z,36.43
2017-09-24T13:41:51.100Z,36.33
2017-09-24T13:43:00.436Z,36.33
2017-09-24T13:44:09.775Z,36.52
2017-09-24T13:45:18.792Z,36.43
2017-09-24T13:46:27.487Z,36.82
2017-09-24T13:47:36.183Z,36.9
2017-09-24T13:48:45.526Z,36.99
2017-09-24T13:49:54.221Z,36.8
2017-09-24T13:51:03.237Z,36.9
2017-09-24T13:52:12.933Z,37.28
2017-09-24T13:53:21.912Z,37.28
2017-09-24T13:54:30.932Z,37.28
2017-09-24T13:55:39.948Z,37.19
2017-09-24T13:56:48.975Z,37.28
2017-09-24T13:57:57.674Z,36.99
2017-09-24T13:59:06.693Z,36.99
2017-09-24T14:00:15.714Z,37.19
2017-09-24T14:01:25.368Z,37.28
2017-09-24T14:02:34.386Z,37.09
2017-09-24T14:03:43.400Z,37.28
2017-09-24T14:04:52.417Z,37.09
2017-09-24T14:06:02.398Z,37.19
2017-09-24T14:07:11.096Z,37.09
2017-09-24T14:08:20.436Z,37.28
2017-09-24T14:09:29.777Z,37.19
2017-09-24T14:10:39.113Z,37.28
2017-09-24T14:11:48.138Z,37.28
2017-09-24T14:12:57.483Z,37.67
2017-09-24T14:14:07.142Z,37.55
2017-09-24T14:15:16.160Z,37.38
2017-09-24T14:16:25.174Z,37.38
2017-09-24T14:17:34.507Z,37.38
2017-09-24T14:18:43.525Z,37.48
2017-09-24T14:19:52.221Z,37.67
2017-09-24T14:21:01.236Z,37.57
2017-09-24T14:22:10.575Z,37.38
2017-09-24T14:23:19.598Z,37.67
2017-09-24T14:24:29.576Z,37.57
2017-09-24T14:25:38.913Z,37.38
2017-09-24T14:26:47.610Z,37.28
2017-09-24T14:27:56.630Z,37.57
2017-09-24T14:29:05.964Z,37.36
2017-09-24T14:30:14.660Z,37.57
2017-09-24T14:31:23.675Z,37.38
2017-09-24T14:32:33.011Z,37.38
2017-09-24T14:33:42.669Z,37.57
2017-09-24T14:34:52.002Z,37.38
2017-09-24T14:36:01.017Z,37.57
2017-09-24T14:37:09.715Z,37.36
2017-09-24T14:38:18.732Z,37.17
2017-09-24T14:39:27.751Z,37.28
2017-09-24T14:40:36.449Z,37.19
2017-09-24T14:41:45.803Z,37.36
2017-09-24T14:42:54.818Z,37.67
2017-09-24T14:44:04.155Z,37.57
2017-09-24T14:45:13.493Z,37.48
2017-09-24T14:46:22.828Z,37.55
2017-09-24T14:47:32.166Z,37.65
2017-09-24T14:48:41.185Z,37.55
2017-09-24T14:49:50.204Z,37.55
2017-09-24T14:50:58.902Z,37.28
2017-09-24T14:52:07.607Z,37.46